Time;durP1;ratioP1;P1;durP2;ratioP2;P2;SDS_P1;SDS_P2;PMS_P1;PMS_P2;Temp;Humidity;BMP_temperature;BMP_pressure;BME280_temperature;BME280_humidity;BME280_pressure;Samples;Min_cycle;Max_cycle;Signal;HPM_P1;HPM_P2
2022/08/07 00:02:12;;;;;;;4.25;3.13;;;;;;;15.07;90.48;102757.47;5093033;28;20047;-33
2022/08/07 00:04:59;;;;;;;3.75;2.60;;;;;;;15.04;90.48;102749.59;5093634;28;20408;-36
2022/08/07 00:07:32;;;;;;;4.63;3.10;;;;;;;15.01;90.71;102747.34;5092582;28;20048;-40
2022/08/07 00:10:08;;;;;;;4.10;2.97;;;;;;;14.98;90.84;102745.13;5093395;28;20040;-39
2022/08/07 00:12:54;;;;;;;4.32;3.35;;;;;;;14.98;91.41;102743.16;5092763;28;20044;-39
2022/08/07 00:15:28;;;;;;;6.82;3.20;;;;;;;15.00;91.28;102751.28;5092700;28;20058;-35
2022/08/07 00:18:13;;;;;;;3.90;2.80;;;;;;;14.96;91.37;102747.38;5092976;28;20052;-32
2022/08/07 00:20:51;;;;;;;3.95;2.75;;;;;;;14.92;91.39;102740.63;5092331;28;20040;-32
2022/08/07 00:23:20;;;;;;;3.63;2.58;;;;;;;14.88;91.48;102740.34;5092540;28;20052;-35
2022/08/07 00:25:49;;;;;;;4.15;2.97;;;;;;;14.83;91.66;102743.16;5092958;28;20146;-33
2022/08/07 00:28:29;;;;;;;3.80;2.97;;;;;;;14.76;91.82;102743.47;5092163;28;20135;-36
2022/08/07 00:31:03;;;;;;;3.78;2.83;;;;;;;14.73;92.19;102745.97;5092990;28;20135;-35
2022/08/07 00:33:34;;;;;;;3.85;2.90;;;;;;;14.68;92.47;102740.34;5092606;28;20048;-33
2022/08/07 00:36:03;;;;;;;4.00;2.90;;;;;;;14.66;92.80;102742.59;5091933;28;20048;-38
2022/08/07 00:38:35;;;;;;;4.65;3.10;;;;;;;14.64;93.11;102744.84;5091196;28;20560;-39
2022/08/07 00:41:04;;;;;;;4.25;2.90;;;;;;;14.61;93.38;102728.53;5091343;28;20060;-34
2022/08/07 00:43:41;;;;;;;3.78;2.63;;;;;;;14.57;93.65;102735.88;5092552;28;20040;-38
2022/08/07 00:46:28;;;;;;;3.65;2.95;;;;;;;14.51;93.40;102729.41;5090477;28;20497;-34
2022/08/07 00:49:00;;;;;;;4.07;3.05;;;;;;;14.50;93.90;102726.88;5091701;28;20047;-32
2022/08/07 00:51:29;;;;;;;4.18;3.20;;;;;;;14.44;94.19;102729.66;5092702;28;20048;-33
2022/08/07 00:54:18;;;;;;;4.57;3.25;;;;;;;14.38;94.61;102725.16;5090916;28;20044;-38
2022/08/07 00:56:47;;;;;;;3.88;2.90;;;;;;;14.36;94.73;102726.56;5091651;28;20489;-33
2022/08/07 00:59:16;;;;;;;3.67;2.70;;;;;;;14.33;94.89;102732.72;5092238;28;20512;-35
2022/08/07 01:01:49;;;;;;;4.53;2.70;;;;;;;14.28;95.00;102722.31;5092657;28;20089;-32
2022/08/07 01:04:24;;;;;;;5.30;2.92;;;;;;;14.25;94.98;102730.47;5091395;28;20090;-32
2022/08/07 01:06:57;;;;;;;5.00;3.28;;;;;;;14.20;95.34;102728.47;5090945;28;20048;-32
2022/08/07 01:09:26;;;;;;;4.32;2.63;;;;;;;14.18;95.48;102727.09;5089712;28;20048;-35
2022/08/07 01:12:15;;;;;;;3.75;2.70;;;;;;;14.13;95.82;102725.97;5089250;28;20052;-33
2022/08/07 01:14:59;;;;;;;5.22;3.22;;;;;;;14.09;95.85;102722.00;5091959;28;20043;-37
2022/08/07 01:17:29;;;;;;;4.25;2.83;;;;;;;14.05;96.08;102725.66;5089983;28;20054;-32
2022/08/07 01:20:06;;;;;;;4.20;2.80;;;;;;;14.02;96.01;102726.19;5091785;28;20035;-32
2022/08/07 01:22:38;;;;;;;4.32;2.95;;;;;;;13.98;96.34;102720.31;5090980;28;20382;-34
2022/08/07 01:25:15;;;;;;;3.78;2.80;;;;;;;13.95;96.93;102725.63;5089450;28;20044;-33
2022/08/07 01:28:03;;;;;;;3.85;3.03;;;;;;;13.89;96.81;102721.97;5090916;28;20097;-33
2022/08/07 01:30:32;;;;;;;4.47;3.13;;;;;;;13.86;97.16;102719.69;5090686;28;20520;-32
2022/08/07 01:33:00;;;;;;;3.70;2.78;;;;;;;13.83;97.28;102725.84;5090417;28;20112;-32
2022/08/07 01:35:30;;;;;;;5.03;3.05;;;;;;;13.79;97.69;102722.75;5090150;28;20386;-29
2022/08/07 01:38:21;;;;;;;4.53;2.67;;;;;;;13.75;97.82;102718.84;5091000;28;20118;-35
2022/08/07 01:40:59;;;;;;;4.53;2.88;;;;;;;13.72;98.15;102726.97;5090252;28;20516;-31
2022/08/07 01:43:29;;;;;;;4.13;2.70;;;;;;;13.70;98.31;102723.59;5090642;28;20180;-31
2022/08/07 01:46:06;;;;;;;5.20;2.67;;;;;;;13.66;98.55;102717.66;5089022;28;20072;-33
2022/08/07 01:48:42;;;;;;;4.43;2.90;;;;;;;13.63;98.79;102720.19;5090229;28;20105;-38
2022/08/07 01:51:25;;;;;;;5.50;3.05;;;;;;;13.58;99.03;102721.03;5090181;28;20079;-35
2022/08/07 01:54:18;;;;;;;4.15;2.90;;;;;;;13.55;99.24;102715.13;5070342;28;20049;-36
2022/08/07 01:57:05;;;;;;;4.18;3.00;;;;;;;13.50;99.59;102710.31;5090116;28;20044;-36
2022/08/07 01:59:42;;;;;;;4.20;3.10;;;;;;;13.47;99.61;102712.81;5093916;28;20071;-31
2022/08/07 02:02:18;;;;;;;3.72;2.53;;;;;;;13.43;99.86;102713.38;5094165;28;20048;-34
2022/08/07 02:05:10;;;;;;;5.18;3.10;;;;;;;13.37;100.00;102714.47;5094120;28;20409;-32
2022/08/07 02:08:03;;;;;;;3.67;2.70;;;;;;;13.33;100.00;102716.13;5093789;28;20499;-32
2022/08/07 02:10:40;;;;;;;4.70;2.75;;;;;;;13.31;100.00;102707.16;5094149;28;20044;-32
2022/08/07 02:13:12;;;;;;;3.90;2.88;;;;;;;13.28;100.00;102704.88;5093503;28;20048;-33
2022/08/07 02:15:49;;;;;;;3.90;2.65;;;;;;;13.26;100.00;102709.91;5093956;28;20501;-33
2022/08/07 02:18:21;;;;;;;4.25;3.20;;;;;;;13.24;100.00;102702.88;5094581;28;20412;-34
2022/08/07 02:20:53;;;;;;;;;;;;;;;13.20;100.00;102704.53;5093757;28;20055;-33
2022/08/07 02:23:25;;;;;;;4.60;3.15;;;;;;;13.14;100.00;102706.47;5094306;28;19919;-34
2022/08/07 02:25:58;;;;;;;4.32;3.00;;;;;;;13.15;100.00;102705.38;5093515;28;20495;-34
2022/08/07 02:28:51;;;;;;;5.55;3.20;;;;;;;13.12;100.00;102717.09;5093234;28;20119;-37
2022/08/07 02:31:20;;;;;;;4.22;2.88;;;;;;;13.10;100.00;102720.16;5093768;28;21244;-33
2022/08/07 02:33:58;;;;;;;3.80;2.60;;;;;;;13.09;100.00;102718.47;5092965;28;20040;-33
2022/08/07 02:36:44;;;;;;;4.88;3.70;;;;;;;13.07;100.00;102717.06;5093380;28;20052;-31
2022/08/07 02:39:17;;;;;;;4.55;3.30;;;;;;;13.04;100.00;102721.25;5083151;28;20056;-32
2022/08/07 02:42:08;;;;;;;5.47;3.38;;;;;;;13.01;100.00;102716.16;5092556;28;20358;-31
2022/08/07 02:44:43;;;;;;;4.30;3.45;;;;;;;13.00;100.00;102719.25;5093574;28;20040;-33
2022/08/07 02:47:17;;;;;;;3.92;3.20;;;;;;;12.97;100.00;102717.84;5092936;28;20064;-39
2022/08/07 02:50:13;;;;;;;5.00;3.40;;;;;;;12.93;100.00;102713.06;5093021;28;20382;-38
2022/08/07 02:52:44;;;;;;;4.30;3.20;;;;;;;12.92;100.00;102703.81;5093044;28;20048;-31
2022/08/07 02:55:19;;;;;;;4.72;3.45;;;;;;;12.92;100.00;102705.75;5092392;28;20487;-40
2022/08/07 02:58:12;;;;;;;5.55;3.80;;;;;;;12.88;100.00;102704.59;5094611;28;20044;-40
2022/08/07 03:00:43;;;;;;;4.72;3.40;;;;;;;12.86;100.00;102706.81;5093405;28;20059;-37
2022/08/07 03:03:16;;;;;;;5.65;3.60;;;;;;;12.85;100.00;102693.94;5092247;28;20055;-37
2022/08/07 03:05:54;;;;;;;4.10;3.05;;;;;;;12.83;100.00;102690.56;5093087;28;20068;-39
2022/08/07 03:08:24;;;;;;;4.40;3.20;;;;;;;12.79;100.00;102686.63;5092767;28;20135;-36
2022/08/07 03:10:58;;;;;;;5.10;3.75;;;;;;;12.77;100.00;102689.69;5092309;28;20138;-38
2022/08/07 03:13:36;;;;;;;4.75;3.50;;;;;;;12.75;100.00;102689.13;5092943;28;20048;-38
2022/08/07 03:16:17;;;;;;;4.22;3.33;;;;;;;12.71;100.00;102693.56;5092543;28;20044;-40
2022/08/07 03:18:55;;;;;;;4.15;2.75;;;;;;;12.69;100.00;102695.78;5092769;28;20409;-34
2022/08/07 03:21:24;;;;;;;5.60;4.07;;;;;;;12.70;100.00;102689.06;5093110;28;20104;-34
2022/08/07 03:23:54;;;;;;;6.05;4.32;;;;;;;12.74;100.00;102688.28;5091862;28;20044;-35
2022/08/07 03:26:44;;;;;;;5.18;4.30;;;;;;;12.75;100.00;102689.13;5092750;28;20036;-33
2022/08/07 03:29:30;;;;;;;6.57;4.70;;;;;;;12.75;100.00;102692.75;5092683;28;20490;-32
2022/08/07 03:32:05;;;;;;;6.68;4.30;;;;;;;12.76;100.00;102694.44;5092059;28;20048;-39
2022/08/07 03:34:34;;;;;;;7.43;4.55;;;;;;;12.77;100.00;102689.69;5093899;28;20062;-34
2022/08/07 03:37:09;;;;;;;4.63;3.88;;;;;;;12.75;100.00;102695.56;5091783;28;20067;-36
2022/08/07 03:39:42;;;;;;;6.45;4.50;;;;;;;12.71;100.00;102690.75;5092503;28;20040;-30
2022/08/07 03:42:27;;;;;;;5.10;3.80;;;;;;;12.68;100.00;102694.09;5094012;28;20040;-37
2022/08/07 03:44:57;;;;;;;6.07;3.70;;;;;;;12.65;100.00;102687.06;5091268;28;20127;-38
2022/08/07 03:47:28;;;;;;;4.97;3.83;;;;;;;12.62;100.00;102687.59;5093421;28;20430;-31
2022/08/07 03:50:18;;;;;;;5.15;4.00;;;;;;;12.57;100.00;102681.97;5093493;28;20062;-31
2022/08/07 03:52:52;;;;;;;4.97;3.72;;;;;;;12.56;100.00;102679.44;5091667;28;20047;-36
2022/08/07 03:55:21;;;;;;;5.05;4.07;;;;;;;12.56;100.00;102679.44;5091921;28;20044;-39
2022/08/07 03:57:51;;;;;;;5.65;4.38;;;;;;;12.57;100.00;102676.38;5091768;28;20131;-36
2022/08/07 04:00:42;;;;;;;7.30;5.10;;;;;;;12.58;100.00;102672.47;5093022;28;20131;-32
2022/08/07 04:03:21;;;;;;;6.63;5.15;;;;;;;12.58;100.00;102677.22;5071672;28;20413;-34
2022/08/07 04:05:51;;;;;;;7.25;5.25;;;;;;;12.58;100.00;102674.44;5086448;28;20082;-37
2022/08/07 04:08:26;;;;;;;5.47;4.45;;;;;;;12.56;100.00;102674.69;5091478;28;20554;-40
2022/08/07 04:10:55;;;;;;;6.35;4.63;;;;;;;12.53;100.00;102666.81;5090831;28;20048;-38
2022/08/07 04:13:45;;;;;;;6.20;4.50;;;;;;;12.50;100.00;102672.13;5087508;28;20140;-34
2022/08/07 04:16:36;;;;;;;6.32;4.15;;;;;;;12.48;100.00;102675.19;5090565;28;20038;-40
2022/08/07 04:19:07;;;;;;;5.32;3.78;;;;;;;12.48;100.00;102671.53;5093421;28;20071;-33
2022/08/07 04:21:48;;;;;;;4.75;3.42;;;;;;;12.46;100.00;102680.19;5091591;28;20435;-36
2022/08/07 04:24:30;;;;;;;6.87;4.53;;;;;;;12.43;100.00;102681.56;5091982;28;20139;-38
2022/08/07 04:27:07;;;;;;;5.57;4.55;;;;;;;12.45;100.00;102688.88;5090747;28;20463;-31
2022/08/07 04:29:54;;;;;;;7.00;5.30;;;;;;;12.46;100.00;102684.94;5091588;28;20056;-37
2022/08/07 04:32:40;;;;;;;6.53;5.10;;;;;;;12.48;100.00;102668.72;5091889;28;20101;-37
2022/08/07 04:35:15;;;;;;;7.50;5.28;;;;;;;12.50;100.00;102670.16;5090523;28;20044;-34
2022/08/07 04:37:45;;;;;;;5.93;4.18;;;;;;;12.50;100.00;102675.75;5088411;28;20382;-41
2022/08/07 04:40:33;;;;;;;6.00;4.60;;;;;;;12.50;100.00;102681.34;5090656;28;20044;-32
2022/08/07 04:43:01;;;;;;;5.25;3.85;;;;;;;12.51;100.00;102680.25;5092714;28;20119;-38
2022/08/07 04:45:40;;;;;;;5.22;4.32;;;;;;;12.52;100.00;102679.13;5091176;28;20064;-32
2022/08/07 04:48:33;;;;;;;5.90;4.68;;;;;;;12.53;100.00;102677.19;5090106;28;20058;-39
2022/08/07 04:51:08;;;;;;;6.88;4.88;;;;;;;12.58;100.00;102680.03;5091029;28;20131;-35
2022/08/07 04:53:44;;;;;;;6.50;4.38;;;;;;;12.63;100.00;102682.84;5091317;28;20073;-39
2022/08/07 04:56:41;;;;;;;7.30;4.50;;;;;;;12.64;100.00;102681.72;5089954;28;20047;-35
2022/08/07 04:59:34;;;;;;;6.10;4.38;;;;;;;12.64;100.00;102682.56;5091219;28;20044;-32
2022/08/07 05:02:27;;;;;;;7.15;5.40;;;;;;;12.67;100.00;102689.59;5089515;28;20459;-35
2022/08/07 05:05:02;;;;;;;5.85;4.70;;;;;;;12.71;100.00;102686.00;5091016;28;20056;-36
2022/08/07 05:07:58;;;;;;;6.78;5.47;;;;;;;12.73;100.00;102694.13;5090820;28;20496;-37
2022/08/07 05:10:33;;;;;;;6.63;4.68;;;;;;;12.79;100.00;102683.81;5090108;28;20105;-37
2022/08/07 05:13:08;;;;;;;7.22;5.35;;;;;;;12.83;100.00;102687.75;5090454;28;20093;-35
2022/08/07 05:15:57;;;;;;;7.70;5.57;;;;;;;12.85;100.00;102683.56;5070151;28;20062;-38
2022/08/07 05:18:29;;;;;;;8.55;6.70;;;;;;;12.89;100.00;102681.06;5090555;28;20048;-35
2022/08/07 05:21:04;;;;;;;9.48;7.00;;;;;;;12.94;100.00;102687.56;5079680;28;20048;-34
2022/08/07 05:23:39;;;;;;;7.35;5.68;;;;;;;13.01;100.00;102690.09;5089722;28;20044;-38
2022/08/07 05:26:12;;;;;;;7.82;5.97;;;;;;;13.07;100.00;102686.22;5070631;28;20055;-29
2022/08/07 05:28:55;;;;;;;8.80;7.00;;;;;;;13.10;100.00;102694.09;5088606;28;20052;-33
2022/08/07 05:31:29;;;;;;;7.95;6.30;;;;;;;13.19;100.00;102697.28;5089683;28;20447;-37
2022/08/07 05:34:09;;;;;;;6.82;5.20;;;;;;;13.24;100.00;102698.13;5091590;28;20043;-35
2022/08/07 05:36:44;;;;;;;6.43;4.25;;;;;;;13.28;100.00;102707.69;5089662;28;20436;-40
2022/08/07 05:39:39;;;;;;;6.68;5.38;;;;;;;13.31;100.00;102703.50;5090215;28;20058;-37
2022/08/07 05:42:27;;;;;;;6.80;5.22;;;;;;;13.37;100.00;102700.44;5091465;28;20101;-35
2022/08/07 05:45:02;;;;;;;8.15;5.90;;;;;;;13.46;100.00;102706.38;5086735;28;20043;-40
2022/08/07 05:47:51;;;;;;;9.20;5.97;;;;;;;13.54;100.00;102708.66;5089670;28;20051;-38
2022/08/07 05:50:33;;;;;;;9.33;6.37;;;;;;;13.64;100.00;102707.84;5090328;28;20052;-38
2022/08/07 05:53:07;;;;;;;8.35;6.72;;;;;;;13.72;100.00;102710.97;5091239;28;20051;-37
2022/08/07 05:55:56;;;;;;;7.40;5.50;;;;;;;13.80;100.00;102713.22;5080398;28;20059;-36
2022/08/07 05:58:32;;;;;;;9.15;5.70;;;;;;;13.88;100.00;102720.28;5089190;28;20079;-37
2022/08/07 06:01:07;;;;;;;7.70;5.18;;;;;;;13.96;100.00;102718.91;5090416;28;20071;-32
2022/08/07 06:03:43;;;;;;;7.13;5.82;;;;;;;14.04;100.00;102722.00;5090030;28;20044;-33
2022/08/07 06:06:25;;;;;;;8.82;6.38;;;;;;;14.11;100.00;102722.59;5089530;28;20048;-38
2022/08/07 06:09:03;;;;;;;8.30;6.60;;;;;;;14.20;100.00;102719.22;5089618;28;20085;-36
2022/08/07 06:11:35;;;;;;;7.53;5.75;;;;;;;14.28;100.00;102718.66;5090266;28;20048;-34
2022/08/07 06:14:04;;;;;;;7.07;4.95;;;;;;;14.37;100.00;102722.63;5089039;28;20072;-39
2022/08/07 06:16:51;;;;;;;6.63;5.43;;;;;;;14.45;100.00;102719.28;5089984;28;20147;-39
2022/08/07 06:19:27;;;;;;;6.45;5.15;;;;;;;14.55;100.00;102724.06;5088905;28;20048;-37
2022/08/07 06:22:17;;;;;;;8.38;5.40;;;;;;;14.67;100.00;102713.38;5090031;28;20381;-39
2022/08/07 06:25:04;;;;;;;7.88;5.90;;;;;;;14.80;100.00;102716.44;5089644;28;20465;-31
2022/08/07 06:27:32;;;;;;;7.38;4.57;;;;;;;14.95;100.00;102714.78;5089123;28;20079;-36
2022/08/07 06:30:20;;;;;;;7.03;5.00;;;;;;;15.09;100.00;102724.28;5089825;28;20039;-36
2022/08/07 06:33:05;;;;;;;7.20;4.90;;;;;;;15.26;100.00;102733.25;5089042;28;20044;-41
2022/08/07 06:35:43;;;;;;;8.20;4.38;;;;;;;15.47;100.00;102726.44;5089608;28;20060;-42
2022/08/07 06:38:31;;;;;;;6.68;4.57;;;;;;;15.86;100.00;102728.53;5069925;28;20044;-39
2022/08/07 06:41:07;;;;;;;5.47;3.95;;;;;;;16.34;100.00;102724.03;5085098;28;20102;-31
2022/08/07 06:43:41;;;;;;;5.57;4.00;;;;;;;16.82;100.00;102710.97;5069615;28;20402;-31
2022/08/07 06:46:18;;;;;;;5.40;3.85;;;;;;;17.35;100.00;102707.31;5089862;28;20416;-33
2022/08/07 06:48:59;;;;;;;4.07;3.10;;;;;;;17.87;100.00;102714.84;5072535;28;20040;-33
2022/08/07 06:51:34;;;;;;;4.95;3.38;;;;;;;18.32;99.36;102718.16;5090624;28;20052;-32
2022/08/07 06:54:18;;;;;;;4.22;2.83;;;;;;;18.92;97.37;102714.34;5072582;28;20078;-32
2022/08/07 06:57:09;;;;;;;5.47;3.28;;;;;;;19.53;92.73;102710.34;5092993;28;20044;-39
2022/08/07 06:59:42;;;;;;;5.65;2.90;;;;;;;20.15;89.59;102715.50;5093685;28;20092;-43
2022/08/07 07:02:33;;;;;;;4.75;2.78;;;;;;;20.91;85.54;102707.94;5089079;28;20044;-39
2022/08/07 07:05:21;;;;;;;4.88;2.50;;;;;;;21.55;80.23;102709.28;5094120;28;20048;-37
2022/08/07 07:08:11;;;;;;;3.92;2.30;;;;;;;22.27;76.30;102713.59;5082662;28;20382;-33
2022/08/07 07:10:52;;;;;;;4.15;2.05;;;;;;;22.66;71.25;102710.56;5094164;28;20048;-34
2022/08/07 07:13:33;;;;;;;3.25;2.00;;;;;;;23.15;69.21;102710.34;5082711;28;20051;-32
2022/08/07 07:16:25;;;;;;;4.97;1.73;;;;;;;23.94;66.26;102716.19;5093168;28;20481;-37
2022/08/07 07:19:01;;;;;;;3.50;1.63;;;;;;;24.58;63.13;102715.84;5094489;28;20048;-38
2022/08/07 07:21:51;;;;;;;3.13;1.20;;;;;;;25.32;58.75;102712.06;5093752;28;20397;-38
2022/08/07 07:24:40;;;;;;;2.40;1.00;;;;;;;26.06;55.73;102710.88;5094581;28;20044;-33
2022/08/07 07:27:29;;;;;;;3.05;1.20;;;;;;;26.82;52.65;102717.66;5093844;28;20495;-40
2022/08/07 07:30:19;;;;;;;1.95;1.05;;;;;;;27.41;50.19;102713.97;5073273;28;20068;-40
2022/08/07 07:33:06;;;;;;;3.33;1.20;;;;;;;27.90;47.17;102720.16;5092585;28;20052;-38
2022/08/07 07:35:36;;;;;;;2.30;1.00;;;;;;;28.20;46.02;102713.91;5094035;28;20048;-37
2022/08/07 07:38:24;;;;;;;2.50;1.17;;;;;;;28.65;44.34;102711.22;5092980;28;20044;-34
2022/08/07 07:40:55;;;;;;;2.00;1.15;;;;;;;29.11;42.90;102714.19;5093582;28;20051;-39
2022/08/07 07:43:31;;;;;;;2.40;1.20;;;;;;;29.42;41.53;102716.84;5092849;28;20076;-37
2022/08/07 07:46:22;;;;;;;2.03;1.27;;;;;;;29.41;41.98;102717.22;5093950;28;20430;-36
2022/08/07 07:49:11;;;;;;;2.00;1.10;;;;;;;29.89;41.20;102720.50;5090739;28;20059;-34
2022/08/07 07:52:01;;;;;;;1.80;1.10;;;;;;;30.44;39.54;102713.91;5092819;28;20297;-38
2022/08/07 07:54:31;;;;;;;2.30;1.37;;;;;;;30.70;37.72;102712.22;5093695;28;20051;-33
2022/08/07 07:57:02;;;;;;;3.08;1.80;;;;;;;30.82;38.22;102706.19;5092510;28;20130;-39
2022/08/07 07:59:33;;;;;;;2.70;1.20;;;;;;;31.19;36.80;102711.94;5091862;28;20040;-35
2022/08/07 08:02:22;;;;;;;2.78;1.40;;;;;;;31.43;36.39;102708.47;5092475;28;20186;-34
2022/08/07 08:05:04;;;;;;;3.17;1.60;;;;;;;31.60;35.80;102714.78;5080839;28;20402;-41
2022/08/07 08:07:39;;;;;;;2.28;1.50;;;;;;;31.67;35.24;102720.66;5093073;28;20040;-38
2022/08/07 08:10:28;;;;;;;2.33;1.42;;;;;;;31.73;34.89;102719.91;5083970;28;20040;-36
2022/08/07 08:13:07;;;;;;;4.13;1.50;;;;;;;31.61;35.16;102713.56;5092393;28;20109;-38
2022/08/07 08:15:43;;;;;;;2.45;1.58;;;;;;;31.43;34.36;102713.41;5093340;28;20109;-37
2022/08/07 08:18:29;;;;;;;2.53;1.42;;;;;;;31.53;34.61;102715.59;5092379;28;20051;-36
2022/08/07 08:21:01;;;;;;;3.40;1.40;;;;;;;31.90;33.99;102711.78;5093425;28;20401;-44
2022/08/07 08:29:05;;;;;;;2.88;1.40;;;;;;;32.34;33.27;102703.81;5092915;28;20047;-37
2022/08/07 08:31:38;;;;;;;3.30;1.60;;;;;;;32.37;32.62;102699.28;5093118;28;20439;-35
2022/08/07 08:34:37;;;;;;;2.80;1.40;;;;;;;32.55;33.17;102688.63;5091677;28;20050;-39
2022/08/07 08:37:08;;;;;;;3.75;1.40;;;;;;;32.84;32.20;102696.19;5092648;28;20412;-34
2022/08/07 08:39:51;;;;;;;1.67;1.20;;;;;;;33.23;32.19;102692.53;5091699;28;20265;-37
2022/08/07 08:42:29;;;;;;;2.90;1.40;;;;;;;33.41;31.28;102692.56;5092718;28;20582;-38
2022/08/07 08:45:03;;;;;;;2.30;1.30;;;;;;;33.50;30.68;102696.72;5092330;28;20040;-37
2022/08/07 08:47:40;;;;;;;2.55;1.15;;;;;;;33.75;29.97;102690.91;5092021;28;20582;-37
2022/08/07 08:50:24;;;;;;;2.10;1.40;;;;;;;33.85;29.58;102695.88;5092467;28;20040;-39
2022/08/07 08:53:15;;;;;;;2.28;1.17;;;;;;;33.67;29.94;102697.09;5072575;28;20424;-38
2022/08/07 08:55:47;;;;;;;1.75;1.00;;;;;;;33.47;30.59;102696.69;5089024;28;20044;-39
2022/08/07 08:58:34;;;;;;;2.15;1.25;;;;;;;33.18;31.01;102690.84;5092713;28;20420;-38
2022/08/07 09:01:10;;;;;;;2.22;1.20;;;;;;;33.06;31.00;102690.44;5091416;28;20044;-40
2022/08/07 09:03:52;;;;;;;2.05;1.42;;;;;;;33.05;31.04;102692.50;5092585;28;20047;-35
2022/08/07 09:06:40;;;;;;;1.90;1.00;;;;;;;33.40;30.51;102690.91;5092119;28;20105;-39
2022/08/07 09:09:31;;;;;;;2.25;1.20;;;;;;;33.50;30.40;102690.09;5091405;28;20058;-39
2022/08/07 09:12:12;;;;;;;2.05;1.08;;;;;;;33.85;30.29;102695.03;5090415;28;20070;-40
2022/08/07 09:15:05;;;;;;;2.38;1.10;;;;;;;34.07;29.55;102685.06;5091060;28;20063;-37
2022/08/07 09:18:10;;;;;;;2.70;1.00;;;;;;;34.18;29.18;102688.75;5084593;28;20048;-39
2022/08/07 09:20:53;;;;;;;1.83;1.02;;;;;;;34.34;29.34;102688.31;5091484;28;20072;-38
2022/08/07 09:23:37;;;;;;;2.03;1.05;;;;;;;34.05;29.46;102690.44;5091506;28;20051;-38
2022/08/07 09:26:33;;;;;;;1.52;0.90;;;;;;;33.75;29.89;102685.09;5091722;28;20105;-39
2022/08/07 09:29:12;;;;;;;1.92;0.90;;;;;;;33.72;29.62;102691.72;5091048;28;20563;-36
2022/08/07 09:32:13;;;;;;;2.20;1.10;;;;;;;33.58;30.01;102688.00;5091428;28;20418;-37
2022/08/07 09:35:00;;;;;;;2.20;0.93;;;;;;;33.90;29.23;102688.00;5091935;28;20366;-41
2022/08/07 09:37:54;;;;;;;1.95;0.98;;;;;;;34.30;29.64;102677.97;5091357;28;20044;-38
2022/08/07 09:40:35;;;;;;;2.08;0.90;;;;;;;34.47;28.97;102677.06;5091558;28;20414;-39
2022/08/07 09:43:21;;;;;;;1.50;0.80;;;;;;;34.40;28.06;102666.31;5090952;28;20097;-38
2022/08/07 09:46:27;;;;;;;1.80;0.80;;;;;;;33.90;29.04;102668.56;5091223;28;20048;-40
2022/08/07 09:49:28;;;;;;;2.50;0.88;;;;;;;33.36;30.29;102669.84;5091531;28;20093;-42
2022/08/07 09:52:23;;;;;;;3.08;1.02;;;;;;;33.34;30.04;102660.72;5091195;28;20040;-39
2022/08/07 09:55:14;;;;;;;2.90;1.10;;;;;;;33.39;29.89;102663.19;5071557;28;20067;-38
2022/08/07 09:58:39;;;;;;;2.00;0.88;;;;;;;33.76;29.23;102668.56;5089700;28;20067;-35
2022/08/07 10:01:26;;;;;;;2.35;0.90;;;;;;;34.00;28.87;102656.09;5091170;28;20505;-41
2022/08/07 10:04:47;;;;;;;2.13;0.90;;;;;;;34.37;28.45;102651.88;5081568;28;20040;-42
2022/08/07 10:07:38;;;;;;;2.97;0.90;;;;;;;34.74;28.73;102649.19;5073610;28;20063;-44
2022/08/07 10:10:45;;;;;;;2.50;1.00;;;;;;;34.28;27.64;102655.22;5091367;28;20512;-40
2022/08/07 10:13:55;;;;;;;3.38;0.90;;;;;;;33.38;30.14;102652.84;5091195;28;20047;-42
2022/08/07 10:16:57;;;;;;;1.80;0.80;;;;;;;33.25;29.25;102651.59;5091200;28;20056;-40
2022/08/07 10:19:57;;;;;;;1.70;0.90;;;;;;;33.51;29.92;102651.22;5093436;28;20044;-38
2022/08/07 10:22:38;;;;;;;1.42;0.70;;;;;;;33.94;29.57;102645.38;5073753;28;20071;-35
2022/08/07 10:25:20;;;;;;;1.42;0.73;;;;;;;34.27;28.36;102649.78;5094645;28;20048;-39
2022/08/07 10:28:11;;;;;;;1.50;0.90;;;;;;;34.35;27.61;102649.38;5094923;28;20066;-35
2022/08/07 10:30:55;;;;;;;2.08;0.95;;;;;;;33.99;28.99;102642.03;5095382;28;20096;-42
2022/08/07 10:33:49;;;;;;;2.47;0.80;;;;;;;33.18;29.48;102637.94;5094195;28;20408;-37
2022/08/07 10:36:45;;;;;;;2.05;0.80;;;;;;;33.15;30.03;102636.72;5075014;28;20102;-36
2022/08/07 10:39:28;;;;;;;2.17;0.80;;;;;;;33.41;29.89;102638.38;5092347;28;20048;-39
2022/08/07 10:42:27;;;;;;;1.58;0.68;;;;;;;32.93;30.18;102637.94;5095144;28;20101;-41
2022/08/07 10:45:23;;;;;;;1.90;0.70;;;;;;;32.75;30.60;102628.41;5092208;28;20048;-41
2022/08/07 10:48:24;;;;;;;1.23;0.60;;;;;;;32.97;30.24;102632.16;5093631;28;20052;-41
2022/08/07 10:51:07;;;;;;;1.75;0.70;;;;;;;33.29;29.71;102632.19;5094868;28;20044;-43
2022/08/07 10:54:05;;;;;;;1.70;0.77;;;;;;;33.45;30.08;102632.59;5093738;28;20468;-39
2022/08/07 10:56:46;;;;;;;2.60;0.80;;;;;;;33.34;29.55;102637.59;5094555;28;20458;-37
2022/08/07 10:59:25;;;;;;;1.95;0.80;;;;;;;33.03;30.01;102631.34;5094457;28;20047;-35
2022/08/07 11:02:02;;;;;;;2.17;0.85;;;;;;;32.63;30.54;102620.06;5093920;28;20139;-37
2022/08/07 11:05:02;;;;;;;2.35;1.00;;;;;;;32.56;30.07;102618.03;5092899;28;20048;-38
2022/08/07 11:07:42;;;;;;;1.52;0.63;;;;;;;32.63;30.93;102618.00;5073552;28;20457;-40
2022/08/07 11:10:33;;;;;;;1.70;0.80;;;;;;;32.85;30.45;102613.97;5093902;28;20054;-39
2022/08/07 11:13:10;;;;;;;2.22;0.80;;;;;;;33.10;30.54;102613.97;5094453;28;20113;-38
2022/08/07 11:16:05;;;;;;;1.95;0.90;;;;;;;33.26;29.51;102612.75;5093334;28;20039;-40
2022/08/07 11:18:42;;;;;;;1.98;1.00;;;;;;;33.12;29.96;102596.22;5093633;28;20056;-37
2022/08/07 11:21:24;;;;;;;;;;;;;;;32.78;29.17;102595.75;5091410;28;20051;-35
2022/08/07 11:24:09;;;;;;;2.25;0.70;;;;;;;32.55;31.28;102592.41;5093550;28;20685;-38
2022/08/07 11:26:45;;;;;;;2.67;0.90;;;;;;;32.37;30.74;102590.31;5093350;28;20047;-42
2022/08/07 11:29:26;;;;;;;1.88;0.70;;;;;;;32.26;31.34;102589.41;5093047;28;20397;-34
2022/08/07 11:32:17;;;;;;;2.58;0.85;;;;;;;32.46;31.02;102587.84;5085209;28;20580;-40
2022/08/07 11:34:58;;;;;;;2.00;0.88;;;;;;;32.59;30.90;102588.25;5093770;28;20051;-41
2022/08/07 11:37:50;;;;;;;2.22;0.70;;;;;;;32.42;30.83;102586.16;5093251;28;20048;-34
2022/08/07 11:40:47;;;;;;;;;;;;;;;32.13;31.32;102593.91;5094193;28;20481;-34
2022/08/07 11:43:21;;;;;;;1.70;0.70;;;;;;;31.76;32.17;102592.06;5093335;28;19920;-40
2022/08/07 11:46:38;;;;;;;2.30;0.70;;;;;;;31.57;31.61;102601.00;5093244;28;20051;-36
2022/08/07 11:49:21;;;;;;;2.47;0.70;;;;;;;31.77;32.62;102593.72;5073769;28;20132;-37
2022/08/07 11:52:27;;;;;;;2.20;0.90;;;;;;;31.82;30.48;102589.59;5089851;28;20044;-40
2022/08/07 11:55:12;;;;;;;2.25;0.90;;;;;;;31.56;32.06;102581.19;5093303;28;20078;-36
2022/08/07 11:58:08;;;;;;;1.83;0.98;;;;;;;31.65;31.86;102591.13;5083313;28;20044;-35
2022/08/07 12:00:55;;;;;;;2.30;0.93;;;;;;;31.63;31.33;102579.16;5093282;28;20044;-35
2022/08/07 12:03:53;;;;;;;2.28;0.90;;;;;;;31.58;31.26;102575.81;5093010;28;20044;-36
2022/08/07 12:06:43;;;;;;;1.75;1.00;;;;;;;31.57;31.75;102580.78;5072653;28;20085;-36
2022/08/07 12:09:28;;;;;;;1.90;0.80;;;;;;;31.74;32.07;102585.03;5093652;28;20381;-36
2022/08/07 12:12:07;;;;;;;2.17;1.10;;;;;;;31.90;32.39;102578.94;5087757;28;20090;-33
2022/08/07 12:14:59;;;;;;;2.00;0.90;;;;;;;32.02;31.29;102585.16;5093202;28;20447;-36
2022/08/07 12:17:37;;;;;;;2.45;1.27;;;;;;;32.02;31.77;102581.44;5092762;28;20648;-36
2022/08/07 12:20:10;;;;;;;1.85;0.88;;;;;;;32.14;32.35;102589.78;5093297;28;20497;-35
2022/08/07 12:23:14;;;;;;;2.13;1.00;;;;;;;32.21;32.20;102591.88;5092927;28;20055;-40
2022/08/07 12:25:55;;;;;;;1.90;0.85;;;;;;;32.29;31.92;102584.91;5092264;28;20092;-34
2022/08/07 12:28:52;;;;;;;1.52;0.80;;;;;;;32.40;31.25;102582.84;5092585;28;20077;-34
2022/08/07 12:31:29;;;;;;;2.42;0.95;;;;;;;32.17;32.11;102583.19;5092566;28;20043;-34
2022/08/07 12:34:19;;;;;;;1.92;0.90;;;;;;;31.88;31.83;102592.94;5084066;28;20381;-37
2022/08/07 12:36:51;;;;;;;1.75;0.90;;;;;;;31.65;32.60;102576.69;5092706;28;20439;-36